Aviation Digital Data Service (ADDS)

Output produced by METARs form (0800 UTC 18 February 2019)
found at http://www.aviationweather.gov/metar/data/
 
METAR text: KMEM 180754Z 33008KT 10SM FEW023 OVC220 02/M03 A3017 RMK AO2 SLP217 T00171028 $
Conditions at: KMEM (MEMPHIS , TN, US) observed 0754 UTC 18 February 2019
Temperature: 1.7°C (35°F)
Dewpoint: -2.8°C (27°F) [RH = 72%]
Pressure (altimeter): 30.17 inches Hg (1021.8 mb)
[Sea-level pressure: 1021.7 mb]
Winds: from the NNW (330 degrees) at 9 MPH (8 knots; 4.1 m/s)
Visibility: 10 or more miles (16+ km)
Ceiling: 22000 feet AGL
Clouds: few clouds at 2300 feet AGL
overcast cloud deck at 22000 feet AGL
Weather:
SOME DATA ABOVE MAY BE INACCURATE!!!
"$" is an indication the sensor requires maintenance

METAR text: KMEM 180654Z 33010G16KT 10SM FEW024 OVC190 02/M02 A3016 RMK AO2 SLP213 T00221022 $
Conditions at: KMEM (MEMPHIS , TN, US) observed 0654 UTC 18 February 2019
Temperature: 2.2°C (36°F)
Dewpoint: -2.2°C (28°F) [RH = 73%]
Pressure (altimeter): 30.16 inches Hg (1021.4 mb)
[Sea-level pressure: 1021.3 mb]
Winds: from the NNW (330 degrees) at 12 MPH (10 knots; 5.1 m/s)
gusting to 18 MPH (16 knots; 8.2 m/s)
Visibility: 10 or more miles (16+ km)
Ceiling: 19000 feet AGL
Clouds: few clouds at 2400 feet AGL
overcast cloud deck at 19000 feet AGL
Weather:
SOME DATA ABOVE MAY BE INACCURATE!!!
"$" is an indication the sensor requires maintenance

METAR text: KMEM 180554Z 33011G18KT 10SM SCT024 OVC200 03/M02 A3013 RMK AO2 PRESRR SLP205 T00281017 10050 20028 400720028 53033 $
Conditions at: KMEM (MEMPHIS , TN, US) observed 0554 UTC 18 February 2019
Temperature: 2.8°C (37°F)
Dewpoint: -1.7°C (29°F) [RH = 72%]
Pressure (altimeter): 30.13 inches Hg (1020.4 mb)
[Sea-level pressure: 1020.5 mb]
Winds: from the NNW (330 degrees) at 13 MPH (11 knots; 5.7 m/s)
gusting to 21 MPH (18 knots; 9.3 m/s)
Visibility: 10 or more miles (16+ km)
Ceiling: 20000 feet AGL
Clouds: scattered clouds at 2400 feet AGL
overcast cloud deck at 20000 feet AGL
Weather:
SOME DATA ABOVE MAY BE INACCURATE!!!
"$" is an indication the sensor requires maintenance

METAR text: KMEM 180454Z 32009KT 10SM FEW020 OVC200 03/M01 A3009 RMK AO2 SLP191 T00331011 $
Conditions at: KMEM (MEMPHIS , TN, US) observed 0454 UTC 18 February 2019
Temperature: 3.3°C (38°F)
Dewpoint: -1.1°C (30°F) [RH = 73%]
Pressure (altimeter): 30.09 inches Hg (1019.0 mb)
[Sea-level pressure: 1019.1 mb]
Winds: from the NW (320 degrees) at 10 MPH (9 knots; 4.6 m/s)
Visibility: 10 or more miles (16+ km)
Ceiling: 20000 feet AGL
Clouds: few clouds at 2000 feet AGL
overcast cloud deck at 20000 feet AGL
Weather:
SOME DATA ABOVE MAY BE INACCURATE!!!
"$" is an indication the sensor requires maintenance

METAR text: KMEM 180354Z 34006KT 10SM FEW020 OVC200 03/M01 A3006 RMK AO2 SLP180 T00331006 $
Conditions at: KMEM (MEMPHIS , TN, US) observed 0354 UTC 18 February 2019
Temperature: 3.3°C (38°F)
Dewpoint: -0.6°C (31°F) [RH = 76%]
Pressure (altimeter): 30.06 inches Hg (1018.0 mb)
[Sea-level pressure: 1018.0 mb]
Winds: from the NNW (340 degrees) at 7 MPH (6 knots; 3.1 m/s)
Visibility: 10 or more miles (16+ km)
Ceiling: 20000 feet AGL
Clouds: few clouds at 2000 feet AGL
overcast cloud deck at 20000 feet AGL
Weather:
SOME DATA ABOVE MAY BE INACCURATE!!!
"$" is an indication the sensor requires maintenance

METAR text: KMEM 180254Z 33007KT 10SM FEW019 SCT110 OVC200 04/00 A3003 RMK AO2 SLP171 T00390000 51029 $
Conditions at: KMEM (MEMPHIS , TN, US) observed 0254 UTC 18 February 2019
Temperature: 3.9°C (39°F)
Dewpoint: 0.0°C (32°F) [RH = 76%]
Pressure (altimeter): 30.03 inches Hg (1017.0 mb)
[Sea-level pressure: 1017.1 mb]
Winds: from the NNW (330 degrees) at 8 MPH (7 knots; 3.6 m/s)
Visibility: 10 or more miles (16+ km)
Ceiling: 20000 feet AGL
Clouds: few clouds at 1900 feet AGL
scattered clouds at 11000 feet AGL
overcast cloud deck at 20000 feet AGL
Weather:
SOME DATA ABOVE MAY BE INACCURATE!!!
"$" is an indication the sensor requires maintenance

METAR text: KMEM 180154Z 32009KT 10SM SCT024 SCT100 OVC200 04/01 A3001 RMK AO2 SLP162 T00390011 $
Conditions at: KMEM (MEMPHIS , TN, US) observed 0154 UTC 18 February 2019
Temperature: 3.9°C (39°F)
Dewpoint: 1.1°C (34°F) [RH = 82%]
Pressure (altimeter): 30.01 inches Hg (1016.3 mb)
[Sea-level pressure: 1016.2 mb]
Winds: from the NW (320 degrees) at 10 MPH (9 knots; 4.6 m/s)
Visibility: 10 or more miles (16+ km)
Ceiling: 20000 feet AGL
Clouds: scattered clouds at 2400 feet AGL
scattered clouds at 10000 feet AGL
overcast cloud deck at 20000 feet AGL
Weather:
SOME DATA ABOVE MAY BE INACCURATE!!!
"$" is an indication the sensor requires maintenance

METAR text: KMEM 180116Z 32011KT 10SM BKN022 OVC200 04/01 A2999 RMK AO2 T00440011 $
Conditions at: KMEM (MEMPHIS , TN, US) observed 0116 UTC 18 February 2019
Temperature: 4.4°C (40°F)
Dewpoint: 1.1°C (34°F) [RH = 79%]
Pressure (altimeter): 29.99 inches Hg (1015.7 mb)
Winds: from the NW (320 degrees) at 13 MPH (11 knots; 5.7 m/s)
Visibility: 10 or more miles (16+ km)
Ceiling: 2200 feet AGL
Clouds: broken clouds at 2200 feet AGL
overcast cloud deck at 20000 feet AGL
Weather:
SOME DATA ABOVE MAY BE INACCURATE!!!
"$" is an indication the sensor requires maintenance

METAR text: KMEM 180054Z 32009KT 10SM SCT021 SCT110 BKN200 04/02 A2998 RMK AO2 SLP151 T00440017 $
Conditions at: KMEM (MEMPHIS , TN, US) observed 0054 UTC 18 February 2019
Temperature: 4.4°C (40°F)
Dewpoint: 1.7°C (35°F) [RH = 83%]
Pressure (altimeter): 29.98 inches Hg (1015.3 mb)
[Sea-level pressure: 1015.1 mb]
Winds: from the NW (320 degrees) at 10 MPH (9 knots; 4.6 m/s)
Visibility: 10 or more miles (16+ km)
Ceiling: 20000 feet AGL
Clouds: scattered clouds at 2100 feet AGL
scattered clouds at 11000 feet AGL
broken clouds at 20000 feet AGL
Weather:
SOME DATA ABOVE MAY BE INACCURATE!!!
"$" is an indication the sensor requires maintenance

METAR text: KMEM 180031Z 32008KT 10SM SCT019 SCT110 BKN200 04/02 A2996 RMK AO2 T00440017 $
Conditions at: KMEM (MEMPHIS , TN, US) observed 0031 UTC 18 February 2019
Temperature: 4.4°C (40°F)
Dewpoint: 1.7°C (35°F) [RH = 83%]
Pressure (altimeter): 29.96 inches Hg (1014.6 mb)
Winds: from the NW (320 degrees) at 9 MPH (8 knots; 4.1 m/s)
Visibility: 10 or more miles (16+ km)
Ceiling: 20000 feet AGL
Clouds: scattered clouds at 1900 feet AGL
scattered clouds at 11000 feet AGL
broken clouds at 20000 feet AGL
Weather:
SOME DATA ABOVE MAY BE INACCURATE!!!
"$" is an indication the sensor requires maintenance

METAR text: KMEM 172354Z 33009KT 7SM BKN023 BKN110 OVC200 05/02 A2995 RMK AO2 SLP142 T00500022 10072 20050 53026 $
Conditions at: KMEM (MEMPHIS , TN, US) observed 2354 UTC 17 February 2019
Temperature: 5.0°C (41°F)
Dewpoint: 2.2°C (36°F) [RH = 82%]
Pressure (altimeter): 29.95 inches Hg (1014.3 mb)
[Sea-level pressure: 1014.2 mb]
Winds: from the NNW (330 degrees) at 10 MPH (9 knots; 4.6 m/s)
Visibility: 7 miles (11 km)
Ceiling: 2300 feet AGL
Clouds: broken clouds at 2300 feet AGL
broken clouds at 11000 feet AGL
overcast cloud deck at 20000 feet AGL
Weather:
SOME DATA ABOVE MAY BE INACCURATE!!!
"$" is an indication the sensor requires maintenance

METAR text: KMEM 172335Z 33011KT 10SM FEW014 BKN023 BKN110 OVC200 05/02 A2993 RMK AO2 T00500022 $
Conditions at: KMEM (MEMPHIS , TN, US) observed 2335 UTC 17 February 2019
Temperature: 5.0°C (41°F)
Dewpoint: 2.2°C (36°F) [RH = 82%]
Pressure (altimeter): 29.93 inches Hg (1013.6 mb)
Winds: from the NNW (330 degrees) at 13 MPH (11 knots; 5.7 m/s)
Visibility: 10 or more miles (16+ km)
Ceiling: 2300 feet AGL
Clouds: few clouds at 1400 feet AGL
broken clouds at 2300 feet AGL
broken clouds at 11000 feet AGL
overcast cloud deck at 20000 feet AGL
Weather:
SOME DATA ABOVE MAY BE INACCURATE!!!
"$" is an indication the sensor requires maintenance

METAR text: KMEM 172254Z 33007KT 10SM SCT020 BKN110 OVC200 06/03 A2990 RMK AO2 SLP124 T00560028 $
Conditions at: KMEM (MEMPHIS , TN, US) observed 2254 UTC 17 February 2019
Temperature: 5.6°C (42°F)
Dewpoint: 2.8°C (37°F) [RH = 82%]
Pressure (altimeter): 29.90 inches Hg (1012.6 mb)
[Sea-level pressure: 1012.4 mb]
Winds: from the NNW (330 degrees) at 8 MPH (7 knots; 3.6 m/s)
Visibility: 10 or more miles (16+ km)
Ceiling: 11000 feet AGL
Clouds: scattered clouds at 2000 feet AGL
broken clouds at 11000 feet AGL
overcast cloud deck at 20000 feet AGL
Weather:
SOME DATA ABOVE MAY BE INACCURATE!!!
"$" is an indication the sensor requires maintenance

METAR text: KMEM 172218Z 32011KT 10SM SCT020 BKN110 OVC200 06/03 A2991 RMK AO2 PRESRR T00610028 $
Conditions at: KMEM (MEMPHIS , TN, US) observed 2218 UTC 17 February 2019
Temperature: 6.1°C (43°F)
Dewpoint: 2.8°C (37°F) [RH = 79%]
Pressure (altimeter): 29.91 inches Hg (1013.0 mb)
Winds: from the NW (320 degrees) at 13 MPH (11 knots; 5.7 m/s)
Visibility: 10 or more miles (16+ km)
Ceiling: 11000 feet AGL
Clouds: scattered clouds at 2000 feet AGL
broken clouds at 11000 feet AGL
overcast cloud deck at 20000 feet AGL
Weather:
SOME DATA ABOVE MAY BE INACCURATE!!!
"$" is an indication the sensor requires maintenance

METAR text: KMEM 172154Z 32009KT 10SM BKN020 OVC110 06/03 A2989 RMK AO2 SLP122 T00610033 $
Conditions at: KMEM (MEMPHIS , TN, US) observed 2154 UTC 17 February 2019
Temperature: 6.1°C (43°F)
Dewpoint: 3.3°C (38°F) [RH = 82%]
Pressure (altimeter): 29.89 inches Hg (1012.3 mb)
[Sea-level pressure: 1012.2 mb]
Winds: from the NW (320 degrees) at 10 MPH (9 knots; 4.6 m/s)
Visibility: 10 or more miles (16+ km)
Ceiling: 2000 feet AGL
Clouds: broken clouds at 2000 feet AGL
overcast cloud deck at 11000 feet AGL
Weather:
SOME DATA ABOVE MAY BE INACCURATE!!!
"$" is an indication the sensor requires maintenance

METAR text: KMEM 172054Z 31008KT 10SM OVC018 07/04 A2987 RMK AO2 SLP115 T00670039 53009 $
Conditions at: KMEM (MEMPHIS , TN, US) observed 2054 UTC 17 February 2019
Temperature: 6.7°C (44°F)
Dewpoint: 3.9°C (39°F) [RH = 82%]
Pressure (altimeter): 29.87 inches Hg (1011.6 mb)
[Sea-level pressure: 1011.5 mb]
Winds: from the NW (310 degrees) at 9 MPH (8 knots; 4.1 m/s)
Visibility: 10 or more miles (16+ km)
Ceiling: 1800 feet AGL
Clouds: overcast cloud deck at 1800 feet AGL
Weather:
SOME DATA ABOVE MAY BE INACCURATE!!!
"$" is an indication the sensor requires maintenance

METAR text: KMEM 171954Z 33007KT 10SM OVC015 07/04 A2984 RMK AO2 SLP104 T00670039 $
Conditions at: KMEM (MEMPHIS , TN, US) observed 1954 UTC 17 February 2019
Temperature: 6.7°C (44°F)
Dewpoint: 3.9°C (39°F) [RH = 82%]
Pressure (altimeter): 29.84 inches Hg (1010.6 mb)
[Sea-level pressure: 1010.4 mb]
Winds: from the NNW (330 degrees) at 8 MPH (7 knots; 3.6 m/s)
Visibility: 10 or more miles (16+ km)
Ceiling: 1500 feet AGL
Clouds: overcast cloud deck at 1500 feet AGL
Weather:
SOME DATA ABOVE MAY BE INACCURATE!!!
"$" is an indication the sensor requires maintenance

METAR text: KMEM 171948Z 33011KT 10SM OVC015 07/04 A2986 RMK AO2 $
Conditions at: KMEM (MEMPHIS , TN, US) observed 1948 UTC 17 February 2019
Temperature: 7.0°C (45°F)
Dewpoint: 4.0°C (39°F) [RH = 81%]
Pressure (altimeter): 29.86 inches Hg (1011.3 mb)
Winds: from the NNW (330 degrees) at 13 MPH (11 knots; 5.7 m/s)
Visibility: 10 or more miles (16+ km)
Ceiling: 1500 feet AGL
Clouds: overcast cloud deck at 1500 feet AGL
Weather:
SOME DATA ABOVE MAY BE INACCURATE!!!
"$" is an indication the sensor requires maintenance

METAR text: KMEM 171925Z 31008KT 10SM BKN014 OVC023 07/04 A2985 RMK AO2 T00670039 $
Conditions at: KMEM (MEMPHIS , TN, US) observed 1925 UTC 17 February 2019
Temperature: 6.7°C (44°F)
Dewpoint: 3.9°C (39°F) [RH = 82%]
Pressure (altimeter): 29.85 inches Hg (1010.9 mb)
Winds: from the NW (310 degrees) at 9 MPH (8 knots; 4.1 m/s)
Visibility: 10 or more miles (16+ km)
Ceiling: 1400 feet AGL
Clouds: broken clouds at 1400 feet AGL
overcast cloud deck at 2300 feet AGL
Weather:
SOME DATA ABOVE MAY BE INACCURATE!!!
"$" is an indication the sensor requires maintenance

METAR text: KMEM 171854Z 33010KT 10SM OVC015 07/04 A2984 RMK AO2 SLP106 T00670044 $
Conditions at: KMEM (MEMPHIS , TN, US) observed 1854 UTC 17 February 2019
Temperature: 6.7°C (44°F)
Dewpoint: 4.4°C (40°F) [RH = 85%]
Pressure (altimeter): 29.84 inches Hg (1010.6 mb)
[Sea-level pressure: 1010.6 mb]
Winds: from the NNW (330 degrees) at 12 MPH (10 knots; 5.1 m/s)
Visibility: 10 or more miles (16+ km)
Ceiling: 1500 feet AGL
Clouds: overcast cloud deck at 1500 feet AGL
Weather:
SOME DATA ABOVE MAY BE INACCURATE!!!
"$" is an indication the sensor requires maintenance

METAR text: KMEM 171844Z 32011KT 10SM OVC015 07/05 A2984 RMK AO2 T00670050 $
Conditions at: KMEM (MEMPHIS , TN, US) observed 1844 UTC 17 February 2019
Temperature: 6.7°C (44°F)
Dewpoint: 5.0°C (41°F) [RH = 89%]
Pressure (altimeter): 29.84 inches Hg (1010.6 mb)
Winds: from the NW (320 degrees) at 13 MPH (11 knots; 5.7 m/s)
Visibility: 10 or more miles (16+ km)
Ceiling: 1500 feet AGL
Clouds: overcast cloud deck at 1500 feet AGL
Weather:
SOME DATA ABOVE MAY BE INACCURATE!!!
"$" is an indication the sensor requires maintenance

METAR text: KMEM 171815Z 30009KT 10SM BKN010 OVC022 07/06 A2985 RMK AO2 CIG 009V014 T00670056 $
Conditions at: KMEM (MEMPHIS , TN, US) observed 1815 UTC 17 February 2019
Temperature: 6.7°C (44°F)
Dewpoint: 5.6°C (42°F) [RH = 93%]
Pressure (altimeter): 29.85 inches Hg (1010.9 mb)
Winds: from the WNW (300 degrees) at 10 MPH (9 knots; 4.6 m/s)
Visibility: 10 or more miles (16+ km)
Ceiling: 1000 feet AGL
Clouds: broken clouds at 1000 feet AGL
overcast cloud deck at 2200 feet AGL
Weather:
SOME DATA ABOVE MAY BE INACCURATE!!!
"$" is an indication the sensor requires maintenance

METAR text: KMEM 171754Z 31009KT 10SM OVC009 07/06 A2986 RMK AO2 CIG 008V014 SLP110 60004 T00670056 10072 20044 51014 $
Conditions at: KMEM (MEMPHIS , TN, US) observed 1754 UTC 17 February 2019
Temperature: 6.7°C (44°F)
Dewpoint: 5.6°C (42°F) [RH = 93%]
Pressure (altimeter): 29.86 inches Hg (1011.3 mb)
[Sea-level pressure: 1011.0 mb]
Winds: from the NW (310 degrees) at 10 MPH (9 knots; 4.6 m/s)
Visibility: 10 or more miles (16+ km)
Ceiling: 900 feet AGL
Clouds: overcast cloud deck at 900 feet AGL
Weather:
SOME DATA ABOVE MAY BE INACCURATE!!!
"$" is an indication the sensor requires maintenance

METAR text: KMEM 171654Z 30008KT 10SM BKN007 BKN050 07/06 A2985 RMK AO2 RAB17E28 SLP108 P0000 T00720061 $
Conditions at: KMEM (MEMPHIS , TN, US) observed 1654 UTC 17 February 2019
Temperature: 7.2°C (45°F)
Dewpoint: 6.1°C (43°F) [RH = 93%]
Pressure (altimeter): 29.85 inches Hg (1010.9 mb)
[Sea-level pressure: 1010.8 mb]
Winds: from the WNW (300 degrees) at 9 MPH (8 knots; 4.1 m/s)
Visibility: 10 or more miles (16+ km)
Ceiling: 700 feet AGL
Clouds: broken clouds at 700 feet AGL
broken clouds at 5000 feet AGL
Weather:
SOME DATA ABOVE MAY BE INACCURATE!!!
"$" is an indication the sensor requires maintenance

METAR text: KMEM 171554Z 29006KT 9SM OVC005 07/06 A2984 RMK AO2 CIG 005V008 SLP104 T00670061 $
Conditions at: KMEM (MEMPHIS , TN, US) observed 1554 UTC 17 February 2019
Temperature: 6.7°C (44°F)
Dewpoint: 6.1°C (43°F) [RH = 96%]
Pressure (altimeter): 29.84 inches Hg (1010.6 mb)
[Sea-level pressure: 1010.4 mb]
Winds: from the WNW (290 degrees) at 7 MPH (6 knots; 3.1 m/s)
Visibility: 9 miles (14 km)
Ceiling: 500 feet AGL
Clouds: overcast cloud deck at 500 feet AGL
Weather:
SOME DATA ABOVE MAY BE INACCURATE!!!
"$" is an indication the sensor requires maintenance

METAR text: KMEM 171536Z 30007KT 10SM OVC009 07/06 A2983 RMK AO2 CIG 006V012 T00670061
Conditions at: KMEM (MEMPHIS , TN, US) observed 1536 UTC 17 February 2019
Temperature: 6.7°C (44°F)
Dewpoint: 6.1°C (43°F) [RH = 96%]
Pressure (altimeter): 29.83 inches Hg (1010.2 mb)
Winds: from the WNW (300 degrees) at 8 MPH (7 knots; 3.6 m/s)
Visibility: 10 or more miles (16+ km)
Ceiling: 900 feet AGL
Clouds: overcast cloud deck at 900 feet AGL
Weather: no significant weather observed at this time

METAR text: KMEM 171526Z 31005KT 10SM BKN010 OVC020 07/06 A2984 RMK AO2 CIG 006V012 T00670056
Conditions at: KMEM (MEMPHIS , TN, US) observed 1526 UTC 17 February 2019
Temperature: 6.7°C (44°F)
Dewpoint: 5.6°C (42°F) [RH = 93%]
Pressure (altimeter): 29.84 inches Hg (1010.6 mb)
Winds: from the NW (310 degrees) at 6 MPH (5 knots; 2.6 m/s)
Visibility: 10 or more miles (16+ km)
Ceiling: 1000 feet AGL
Clouds: broken clouds at 1000 feet AGL
overcast cloud deck at 2000 feet AGL
Weather: no significant weather observed at this time

METAR text: KMEM 171454Z 00000KT 10SM BKN021 OVC031 06/06 A2981 RMK AO2 RAE08 SLP097 P0000 60004 T00560056 51023
Conditions at: KMEM (MEMPHIS , TN, US) observed 1454 UTC 17 February 2019
Temperature: 5.6°C (42°F)
Dewpoint: 5.6°C (42°F) [RH = 100%]
Pressure (altimeter): 29.81 inches Hg (1009.6 mb)
[Sea-level pressure: 1009.7 mb]
Winds: calm
Visibility: 10 or more miles (16+ km)
Ceiling: 2100 feet AGL
Clouds: broken clouds at 2100 feet AGL
overcast cloud deck at 3100 feet AGL
Weather: no significant weather observed at this time

METAR text: KMEM 171354Z 11005KT 4SM -RA BR FEW004 BKN015 OVC026 05/05 A2980 RMK AO2 DZE01RAB01 SLP090 P0004 T00500050
Conditions at: KMEM (MEMPHIS , TN, US) observed 1354 UTC 17 February 2019
Temperature: 5.0°C (41°F)
Dewpoint: 5.0°C (41°F) [RH = 100%]
Pressure (altimeter): 29.80 inches Hg (1009.2 mb)
[Sea-level pressure: 1009.0 mb]
Winds: from the ESE (110 degrees) at 6 MPH (5 knots; 2.6 m/s)
Visibility: 4 miles ( 6 km)
Ceiling: 1500 feet AGL
Clouds: few clouds at 400 feet AGL
broken clouds at 1500 feet AGL
overcast cloud deck at 2600 feet AGL
Weather: -RA BR  (light rain, mist)

METAR text: KMEM 171338Z 11003KT 4SM -RA BR SCT004 OVC017 04/04 A2980 RMK AO2 DZE01RAB01 P0004 T00440044
Conditions at: KMEM (MEMPHIS , TN, US) observed 1338 UTC 17 February 2019
Temperature: 4.4°C (40°F)
Dewpoint: 4.4°C (40°F) [RH = 100%]
Pressure (altimeter): 29.80 inches Hg (1009.2 mb)
Winds: from the ESE (110 degrees) at 3 MPH (3 knots; 1.5 m/s)
Visibility: 4 miles ( 6 km)
Ceiling: 1700 feet AGL
Clouds: scattered clouds at 400 feet AGL
overcast cloud deck at 1700 feet AGL
Weather: -RA BR  (light rain, mist)

METAR text: KMEM 171254Z 34006KT 2 1/2SM -DZ BR OVC003 05/05 A2978 RMK AO2 RAB39E52DZB52 PRESRR SLP085 P0000 T00500050
Conditions at: KMEM (MEMPHIS , TN, US) observed 1254 UTC 17 February 2019
Temperature: 5.0°C (41°F)
Dewpoint: 5.0°C (41°F) [RH = 100%]
Pressure (altimeter): 29.78 inches Hg (1008.5 mb)
[Sea-level pressure: 1008.5 mb]
Winds: from the NNW (340 degrees) at 7 MPH (6 knots; 3.1 m/s)
Visibility: 2.50 miles (4.02 km)
Ceiling: 300 feet AGL
Clouds: overcast cloud deck at 300 feet AGL
Weather: -DZ BR  (light drizzle, mist)

METAR text: KMEM 171154Z 36004KT 2 1/2SM BR OVC003 05/05 A2975 RMK AO2 RAE09 SLP074 P0001 60012 70013 T00500050 10056 20044 51008
Conditions at: KMEM (MEMPHIS , TN, US) observed 1154 UTC 17 February 2019
Temperature: 5.0°C (41°F)
Dewpoint: 5.0°C (41°F) [RH = 100%]
Pressure (altimeter): 29.75 inches Hg (1007.5 mb)
[Sea-level pressure: 1007.4 mb]
Winds: from the N (360 degrees) at 5 MPH (4 knots; 2.1 m/s)
Visibility: 2.50 miles (4.02 km)
Ceiling: 300 feet AGL
Clouds: overcast cloud deck at 300 feet AGL
Weather: BR  (mist)

METAR text: KMEM 171146Z 36003KT 2SM BR OVC003 05/05 A2975 RMK AO2 RAE09 P0001 T00500050
Conditions at: KMEM (MEMPHIS , TN, US) observed 1146 UTC 17 February 2019
Temperature: 5.0°C (41°F)
Dewpoint: 5.0°C (41°F) [RH = 100%]
Pressure (altimeter): 29.75 inches Hg (1007.5 mb)
Winds: from the N (360 degrees) at 3 MPH (3 knots; 1.5 m/s)
Visibility: 2.00 miles (3.22 km)
Ceiling: 300 feet AGL
Clouds: overcast cloud deck at 300 feet AGL
Weather: BR  (mist)

METAR text: KMEM 171054Z 33005KT 3SM -RA BR OVC003 05/05 A2974 RMK AO2 RAB0955 SLP073 P0001 T00500050
Conditions at: KMEM (MEMPHIS , TN, US) observed 1054 UTC 17 February 2019
Temperature: 5.0°C (41°F)
Dewpoint: 5.0°C (41°F) [RH = 100%]
Pressure (altimeter): 29.74 inches Hg (1007.2 mb)
[Sea-level pressure: 1007.3 mb]
Winds: from the NNW (330 degrees) at 6 MPH (5 knots; 2.6 m/s)
Visibility: 3 miles ( 5 km)
Ceiling: 300 feet AGL
Clouds: overcast cloud deck at 300 feet AGL
Weather: -RA BR  (light rain, mist)

METAR text: KMEM 171040Z 32006KT 4SM -RA BR OVC004 05/05 A2975 RMK AO2 RAB0955 P0000 T00500050
Conditions at: KMEM (MEMPHIS , TN, US) observed 1040 UTC 17 February 2019
Temperature: 5.0°C (41°F)
Dewpoint: 5.0°C (41°F) [RH = 100%]
Pressure (altimeter): 29.75 inches Hg (1007.5 mb)
Winds: from the NW (320 degrees) at 7 MPH (6 knots; 3.1 m/s)
Visibility: 4 miles ( 6 km)
Ceiling: 400 feet AGL
Clouds: overcast cloud deck at 400 feet AGL
Weather: -RA BR  (light rain, mist)

METAR text: KMEM 170954Z 32006KT 8SM OVC006 06/05 A2973 RMK AO2 RAE09 SLP069 P0004 T00560050
Conditions at: KMEM (MEMPHIS , TN, US) observed 0954 UTC 17 February 2019
Temperature: 5.6°C (42°F)
Dewpoint: 5.0°C (41°F) [RH = 96%]
Pressure (altimeter): 29.73 inches Hg (1006.9 mb)
[Sea-level pressure: 1006.9 mb]
Winds: from the NW (320 degrees) at 7 MPH (6 knots; 3.1 m/s)
Visibility: 8 miles (13 km)
Ceiling: 600 feet AGL
Clouds: overcast cloud deck at 600 feet AGL
Weather: no significant weather observed at this time

METAR text: KMEM 170854Z 34004KT 9SM RA BKN008 OVC014 05/05 A2972 RMK AO2 LTG DSNT N AND NE SLP065 RAB0758 TSB14E39 OCNL LTG DSNT N-NE P0006 60006 T00500050 56016
Conditions at: KMEM (MEMPHIS , TN, US) observed 0854 UTC 17 February 2019
Temperature: 5.0°C (41°F)
Dewpoint: 5.0°C (41°F) [RH = 100%]
Pressure (altimeter): 29.72 inches Hg (1006.5 mb)
[Sea-level pressure: 1006.5 mb]
Winds: from the NNW (340 degrees) at 5 MPH (4 knots; 2.1 m/s)
Visibility: 9 miles (14 km)
Ceiling: 800 feet AGL
Clouds: broken clouds at 800 feet AGL
overcast cloud deck at 1400 feet AGL
Weather: RA  (moderate rain)

METAR text: KMEM 170841Z 14007KT 7SM -RA BKN008 OVC014 05/04 A2970 RMK AO2 LTG DSNT W AND NW RAB0758 TSB14E39 P0006 T00500044
Conditions at: KMEM (MEMPHIS , TN, US) observed 0841 UTC 17 February 2019
Temperature: 5.0°C (41°F)
Dewpoint: 4.4°C (40°F) [RH = 96%]
Pressure (altimeter): 29.70 inches Hg (1005.8 mb)
Winds: from the SE (140 degrees) at 8 MPH (7 knots; 3.6 m/s)
Visibility: 7 miles (11 km)
Ceiling: 800 feet AGL
Clouds: broken clouds at 800 feet AGL
overcast cloud deck at 1400 feet AGL
Weather: -RA  (light rain)

METAR text: KMEM 170817Z 15007KT 5SM TSRA BR OVC007CB 05/04 A2971 RMK AO2 LTG DSNT W RAB0758 TSB14 OCNL LTGIC S TS S P0003 T00500044
Conditions at: KMEM (MEMPHIS , TN, US) observed 0817 UTC 17 February 2019
Temperature: 5.0°C (41°F)
Dewpoint: 4.4°C (40°F) [RH = 96%]
Pressure (altimeter): 29.71 inches Hg (1006.2 mb)
Winds: from the SSE (150 degrees) at 8 MPH (7 knots; 3.6 m/s)
Visibility: 5 miles ( 8 km)
Ceiling: 700 feet AGL
Clouds: overcast cloud deck at 700 feet AGL
Weather: TSRA BR  (rain associated with thunderstorm(s), mist)

METAR text: KMEM 170754Z 12004KT 10SM BKN007 OVC013 05/04 A2972 RMK AO2 RAB04E25 CIG 007V010 SLP066 P0000 T00500044
Conditions at: KMEM (MEMPHIS , TN, US) observed 0754 UTC 17 February 2019
Temperature: 5.0°C (41°F)
Dewpoint: 4.4°C (40°F) [RH = 96%]
Pressure (altimeter): 29.72 inches Hg (1006.5 mb)
[Sea-level pressure: 1006.6 mb]
Winds: from the ESE (120 degrees) at 5 MPH (4 knots; 2.1 m/s)
Visibility: 10 or more miles (16+ km)
Ceiling: 700 feet AGL
Clouds: broken clouds at 700 feet AGL
overcast cloud deck at 1300 feet AGL
Weather: no significant weather observed at this time

METAR text: KMEM 170745Z 13003KT 10SM BKN009 OVC014 05/04 A2973 RMK AO2 RAB04E25 P0000 T00500039
Conditions at: KMEM (MEMPHIS , TN, US) observed 0745 UTC 17 February 2019
Temperature: 5.0°C (41°F)
Dewpoint: 3.9°C (39°F) [RH = 93%]
Pressure (altimeter): 29.73 inches Hg (1006.9 mb)
Winds: from the SE (130 degrees) at 3 MPH (3 knots; 1.5 m/s)
Visibility: 10 or more miles (16+ km)
Ceiling: 900 feet AGL
Clouds: broken clouds at 900 feet AGL
overcast cloud deck at 1400 feet AGL
Weather: no significant weather observed at this time

METAR text: KMEM 170733Z 14004KT 10SM FEW009 OVC014 05/04 A2973 RMK AO2 RAB04E25 P0000 T00500039
Conditions at: KMEM (MEMPHIS , TN, US) observed 0733 UTC 17 February 2019
Temperature: 5.0°C (41°F)
Dewpoint: 3.9°C (39°F) [RH = 93%]
Pressure (altimeter): 29.73 inches Hg (1006.9 mb)
Winds: from the SE (140 degrees) at 5 MPH (4 knots; 2.1 m/s)
Visibility: 10 or more miles (16+ km)
Ceiling: 1400 feet AGL
Clouds: few clouds at 900 feet AGL
overcast cloud deck at 1400 feet AGL
Weather: no significant weather observed at this time

METAR text: KMEM 170711Z 00000KT 10SM -RA SCT009 OVC017 04/04 A2974 RMK AO2 RAB04 P0000 T00440039
Conditions at: KMEM (MEMPHIS , TN, US) observed 0711 UTC 17 February 2019
Temperature: 4.4°C (40°F)
Dewpoint: 3.9°C (39°F) [RH = 97%]
Pressure (altimeter): 29.74 inches Hg (1007.2 mb)
Winds: calm
Visibility: 10 or more miles (16+ km)
Ceiling: 1700 feet AGL
Clouds: scattered clouds at 900 feet AGL
overcast cloud deck at 1700 feet AGL
Weather: -RA  (light rain)

METAR text: KMEM 170654Z 13005KT 10SM BKN009 OVC017 04/04 A2975 RMK AO2 RAE0558B27E40 SLP074 P0000 T00440039
Conditions at: KMEM (MEMPHIS , TN, US) observed 0654 UTC 17 February 2019
Temperature: 4.4°C (40°F)
Dewpoint: 3.9°C (39°F) [RH = 97%]
Pressure (altimeter): 29.75 inches Hg (1007.5 mb)
[Sea-level pressure: 1007.4 mb]
Winds: from the SE (130 degrees) at 6 MPH (5 knots; 2.6 m/s)
Visibility: 10 or more miles (16+ km)
Ceiling: 900 feet AGL
Clouds: broken clouds at 900 feet AGL
overcast cloud deck at 1700 feet AGL
Weather: no significant weather observed at this time

METAR text: KMEM 170554Z 15008KT 8SM -RA BKN012 OVC024 04/03 A2977 RMK AO2 RAB04 SLP082 P0001 60001 T00440028 10050 20039 400561006 58008
Conditions at: KMEM (MEMPHIS , TN, US) observed 0554 UTC 17 February 2019
Temperature: 4.4°C (40°F)
Dewpoint: 2.8°C (37°F) [RH = 89%]
Pressure (altimeter): 29.77 inches Hg (1008.2 mb)
[Sea-level pressure: 1008.2 mb]
Winds: from the SSE (150 degrees) at 9 MPH (8 knots; 4.1 m/s)
Visibility: 8 miles (13 km)
Ceiling: 1200 feet AGL
Clouds: broken clouds at 1200 feet AGL
overcast cloud deck at 2400 feet AGL
Weather: -RA  (light rain)

METAR text: KMEM 170454Z 13005KT 10SM BKN014 OVC030 04/02 A2979 RMK AO2 SLP090 T00440022
Conditions at: KMEM (MEMPHIS , TN, US) observed 0454 UTC 17 February 2019
Temperature: 4.4°C (40°F)
Dewpoint: 2.2°C (36°F) [RH = 86%]
Pressure (altimeter): 29.79 inches Hg (1008.9 mb)
[Sea-level pressure: 1009.0 mb]
Winds: from the SE (130 degrees) at 6 MPH (5 knots; 2.6 m/s)
Visibility: 10 or more miles (16+ km)
Ceiling: 1400 feet AGL
Clouds: broken clouds at 1400 feet AGL
overcast cloud deck at 3000 feet AGL
Weather: no significant weather observed at this time

METAR text: KMEM 170354Z 12007KT 10SM BKN014 OVC046 04/02 A2980 RMK AO2 SLP092 T00440017
Conditions at: KMEM (MEMPHIS , TN, US) observed 0354 UTC 17 February 2019
Temperature: 4.4°C (40°F)
Dewpoint: 1.7°C (35°F) [RH = 83%]
Pressure (altimeter): 29.80 inches Hg (1009.2 mb)
[Sea-level pressure: 1009.2 mb]
Winds: from the ESE (120 degrees) at 8 MPH (7 knots; 3.6 m/s)
Visibility: 10 or more miles (16+ km)
Ceiling: 1400 feet AGL
Clouds: broken clouds at 1400 feet AGL
overcast cloud deck at 4600 feet AGL
Weather: no significant weather observed at this time

METAR text: KMEM 170316Z 11007KT 10SM BKN014 OVC046 04/02 A2980 RMK AO2 T00440017
Conditions at: KMEM (MEMPHIS , TN, US) observed 0316 UTC 17 February 2019
Temperature: 4.4°C (40°F)
Dewpoint: 1.7°C (35°F) [RH = 83%]
Pressure (altimeter): 29.80 inches Hg (1009.2 mb)
Winds: from the ESE (110 degrees) at 8 MPH (7 knots; 3.6 m/s)
Visibility: 10 or more miles (16+ km)
Ceiling: 1400 feet AGL
Clouds: broken clouds at 1400 feet AGL
overcast cloud deck at 4600 feet AGL
Weather: no significant weather observed at this time

METAR text: KMEM 170254Z 09011KT 10SM FEW014 BKN047 BKN070 OVC250 04/02 A2979 RMK AO2 SLP091 60000 T00390017 58008
Conditions at: KMEM (MEMPHIS , TN, US) observed 0254 UTC 17 February 2019
Temperature: 3.9°C (39°F)
Dewpoint: 1.7°C (35°F) [RH = 86%]
Pressure (altimeter): 29.79 inches Hg (1008.9 mb)
[Sea-level pressure: 1009.1 mb]
Winds: from the E (90 degrees) at 13 MPH (11 knots; 5.7 m/s)
Visibility: 10 or more miles (16+ km)
Ceiling: 4700 feet AGL
Clouds: few clouds at 1400 feet AGL
broken clouds at 4700 feet AGL
broken clouds at 7000 feet AGL
overcast cloud deck at 25000 feet AGL
Weather: no significant weather observed at this time

METAR text: KMEM 170232Z 07012KT 10SM SCT015 BKN050 BKN070 OVC250 04/01 A2980 RMK AO2 T00390011
Conditions at: KMEM (MEMPHIS , TN, US) observed 0232 UTC 17 February 2019
Temperature: 3.9°C (39°F)
Dewpoint: 1.1°C (34°F) [RH = 82%]
Pressure (altimeter): 29.80 inches Hg (1009.2 mb)
Winds: from the ENE (70 degrees) at 14 MPH (12 knots; 6.2 m/s)
Visibility: 10 or more miles (16+ km)
Ceiling: 5000 feet AGL
Clouds: scattered clouds at 1500 feet AGL
broken clouds at 5000 feet AGL
broken clouds at 7000 feet AGL
overcast cloud deck at 25000 feet AGL
Weather: no significant weather observed at this time

METAR text: KMEM 170154Z 08008KT 10SM OVC016 04/02 A2982 RMK AO2 PRESFR SLP099 T00390017
Conditions at: KMEM (MEMPHIS , TN, US) observed 0154 UTC 17 February 2019
Temperature: 3.9°C (39°F)
Dewpoint: 1.7°C (35°F) [RH = 86%]
Pressure (altimeter): 29.82 inches Hg (1009.9 mb)
[Sea-level pressure: 1009.9 mb]
Winds: from the E (80 degrees) at 9 MPH (8 knots; 4.1 m/s)
Visibility: 10 or more miles (16+ km)
Ceiling: 1600 feet AGL
Clouds: overcast cloud deck at 1600 feet AGL
Weather: no significant weather observed at this time

METAR text: KMEM 170054Z 08009KT 10SM OVC018 04/01 A2983 RMK AO2 RAB27E49 SLP104 P0000 T00390011
Conditions at: KMEM (MEMPHIS , TN, US) observed 0054 UTC 17 February 2019
Temperature: 3.9°C (39°F)
Dewpoint: 1.1°C (34°F) [RH = 82%]
Pressure (altimeter): 29.83 inches Hg (1010.2 mb)
[Sea-level pressure: 1010.4 mb]
Winds: from the E (80 degrees) at 10 MPH (9 knots; 4.6 m/s)
Visibility: 10 or more miles (16+ km)
Ceiling: 1800 feet AGL
Clouds: overcast cloud deck at 1800 feet AGL
Weather: no significant weather observed at this time

METAR text: KMEM 162354Z 09012KT 10SM BKN017 BKN085 OVC250 04/01 A2982 RMK AO2 SLP099 T00390006 10056 20033 58015
Conditions at: KMEM (MEMPHIS , TN, US) observed 2354 UTC 16 February 2019
Temperature: 3.9°C (39°F)
Dewpoint: 0.6°C (33°F) [RH = 79%]
Pressure (altimeter): 29.82 inches Hg (1009.9 mb)
[Sea-level pressure: 1009.9 mb]
Winds: from the E (90 degrees) at 14 MPH (12 knots; 6.2 m/s)
Visibility: 10 or more miles (16+ km)
Ceiling: 1700 feet AGL
Clouds: broken clouds at 1700 feet AGL
broken clouds at 8500 feet AGL
overcast cloud deck at 25000 feet AGL
Weather: no significant weather observed at this time

METAR text: KMEM 162254Z 09007KT 10SM BKN019 BKN250 04/00 A2987 RMK AO2 SLP115 T00440000
Conditions at: KMEM (MEMPHIS , TN, US) observed 2254 UTC 16 February 2019
Temperature: 4.4°C (40°F)
Dewpoint: 0.0°C (32°F) [RH = 73%]
Pressure (altimeter): 29.87 inches Hg (1011.6 mb)
[Sea-level pressure: 1011.5 mb]
Winds: from the E (90 degrees) at 8 MPH (7 knots; 3.6 m/s)
Visibility: 10 or more miles (16+ km)
Ceiling: 1900 feet AGL
Clouds: broken clouds at 1900 feet AGL
broken clouds at 25000 feet AGL
Weather: no significant weather observed at this time

METAR text: KMEM 162229Z 09005KT 10SM BKN019 BKN250 04/00 A2987 RMK AO2 T00440000
Conditions at: KMEM (MEMPHIS , TN, US) observed 2229 UTC 16 February 2019
Temperature: 4.4°C (40°F)
Dewpoint: 0.0°C (32°F) [RH = 73%]
Pressure (altimeter): 29.87 inches Hg (1011.6 mb)
Winds: from the E (90 degrees) at 6 MPH (5 knots; 2.6 m/s)
Visibility: 10 or more miles (16+ km)
Ceiling: 1900 feet AGL
Clouds: broken clouds at 1900 feet AGL
broken clouds at 25000 feet AGL
Weather: no significant weather observed at this time

METAR text: KMEM 162154Z 06007KT 10SM SCT019 BKN050 05/00 A2985 RMK AO2 SLP110 T00500000
Conditions at: KMEM (MEMPHIS , TN, US) observed 2154 UTC 16 February 2019
Temperature: 5.0°C (41°F)
Dewpoint: 0.0°C (32°F) [RH = 70%]
Pressure (altimeter): 29.85 inches Hg (1010.9 mb)
[Sea-level pressure: 1011.0 mb]
Winds: from the ENE (60 degrees) at 8 MPH (7 knots; 3.6 m/s)
Visibility: 10 or more miles (16+ km)
Ceiling: 5000 feet AGL
Clouds: scattered clouds at 1900 feet AGL
broken clouds at 5000 feet AGL
Weather: no significant weather observed at this time

METAR text: KMEM 162054Z 08009G22KT 10SM SCT019 BKN040 05/00 A2986 RMK AO2 SLP113 T00500000 56019
Conditions at: KMEM (MEMPHIS , TN, US) observed 2054 UTC 16 February 2019
Temperature: 5.0°C (41°F)
Dewpoint: 0.0°C (32°F) [RH = 70%]
Pressure (altimeter): 29.86 inches Hg (1011.3 mb)
[Sea-level pressure: 1011.3 mb]
Winds: from the E (80 degrees) at 10 MPH (9 knots; 4.6 m/s)
gusting to 25 MPH (22 knots; 11.3 m/s)
Visibility: 10 or more miles (16+ km)
Ceiling: 4000 feet AGL
Clouds: scattered clouds at 1900 feet AGL
broken clouds at 4000 feet AGL
Weather: no significant weather observed at this time

Forecast for: KMEM (MEMPHIS , TN, US)
Text: KMEM 180523Z 1806/1912 34007KT P6SM BKN250
Forecast period: 0600 to 1500 UTC 18 February 2019
Forecast type: FROM: standard forecast or significant change
Winds: from the NNW (340 degrees) at 8 MPH (7 knots; 3.6 m/s)
Visibility: 6 or more miles 10+ km)
Ceiling: 25000 feet AGL
Clouds: broken clouds at 25000 feet AGL
Weather: no significant weather forecast for this period
Text: FM181500 01010KT P6SM BKN250
Forecast period: 1500 UTC 18 February 2019 to 0000 UTC 19 February 2019
Forecast type: FROM: standard forecast or significant change
Winds: from the N (10 degrees) at 12 MPH (10 knots; 5.1 m/s)
Visibility: 6 or more miles 10+ km)
Ceiling: 25000 feet AGL
Clouds: broken clouds at 25000 feet AGL
Weather: no significant weather forecast for this period
Text: FM190000 04010KT P6SM BKN250
Forecast period: 0000 to 1200 UTC 19 February 2019
Forecast type: FROM: standard forecast or significant change
Winds: from the NE (40 degrees) at 12 MPH (10 knots; 5.1 m/s)
Visibility: 6 or more miles 10+ km)
Ceiling: 25000 feet AGL
Clouds: broken clouds at 25000 feet AGL
Weather: no significant weather forecast for this period